Time;durP1;ratioP1;P1;durP2;ratioP2;P2;SDS_P1;SDS_P2;PMS_P1;PMS_P2;Temp;Humidity;BMP_temperature;BMP_pressure;BME280_temperature;BME280_humidity;BME280_pressure;Samples;Min_cycle;Max_cycle;Signal;HPM_P1;HPM_P2
2022/06/20 00:01:29;;;;;;;9.32;6.18;;;;;;;13.05;88.21;97759.19;10453518;28;20499;-57
2022/06/20 00:06:28;;;;;;;10.15;6.80;;;;;;;12.91;88.14;97745.47;10438005;28;20860;-57
2022/06/20 00:11:35;;;;;;;8.80;6.45;;;;;;;12.97;88.26;97754.94;10456659;28;20032;-57
2022/06/20 00:16:34;;;;;;;10.10;6.53;;;;;;;13.00;88.17;97752.28;10455960;28;20074;-57
2022/06/20 00:21:33;;;;;;;9.30;5.85;;;;;;;12.98;88.46;97743.63;10452401;28;20032;-57
2022/06/20 00:26:35;;;;;;;10.65;6.03;;;;;;;13.02;88.22;97750.53;10414419;28;20079;-57
2022/06/20 00:31:35;;;;;;;10.13;6.18;;;;;;;13.04;87.95;97731.41;10429708;28;20820;-57
2022/06/20 00:36:34;;;;;;;8.80;5.15;;;;;;;13.02;88.27;97727.09;10448888;28;20067;-57
2022/06/20 00:41:34;;;;;;;7.00;5.00;;;;;;;12.93;87.87;97718.50;10442976;28;20028;-57
2022/06/20 00:46:42;;;;;;;8.48;4.88;;;;;;;12.96;87.61;97724.56;10427012;28;20075;-58
2022/06/20 00:51:49;;;;;;;6.80;4.32;;;;;;;12.92;87.38;97718.53;10418197;28;20107;-57
2022/06/20 00:56:54;;;;;;;9.55;5.13;;;;;;;12.86;87.37;97709.03;10459085;28;20079;-57
2022/06/20 01:01:54;;;;;;;8.90;5.38;;;;;;;12.75;88.86;97712.66;10484455;28;20512;-57
2022/06/20 01:06:55;;;;;;;8.07;5.72;;;;;;;12.64;89.22;97707.53;10459963;28;20070;-57
2022/06/20 01:11:58;;;;;;;9.52;5.32;;;;;;;12.39;89.76;97723.41;10459580;28;20063;-57
2022/06/20 01:16:58;;;;;;;7.40;5.32;;;;;;;12.15;90.48;97716.59;10459957;28;20572;-57
2022/06/20 01:22:01;;;;;;;8.77;5.55;;;;;;;12.05;90.88;97717.56;10460236;28;20127;-57
2022/06/20 01:27:24;;;;;;;9.13;6.00;;;;;;;12.09;90.04;97701.06;10460059;28;20120;-57
2022/06/20 01:32:23;;;;;;;9.95;6.45;;;;;;;12.05;89.91;97696.75;10460615;28;20827;-57
2022/06/20 01:37:23;;;;;;;;;;;;;;;12.05;90.39;97704.56;10442202;28;20807;-57
2022/06/20 01:42:23;;;;;;;11.52;6.85;;;;;;;12.04;90.62;97708.91;10460185;28;19991;-57
2022/06/20 01:47:22;;;;;;;13.95;6.95;;;;;;;12.06;90.31;97704.56;10460309;28;20482;-57
2022/06/20 01:52:35;;;;;;;9.93;7.53;;;;;;;12.09;90.86;97706.25;10441451;28;20102;-57
2022/06/20 01:57:37;;;;;;;12.88;7.38;;;;;;;12.08;90.88;97713.19;10458572;28;20070;-57
2022/06/20 02:02:40;;;;;;;10.13;6.40;;;;;;;11.84;92.95;97719.44;10496611;28;20521;-57
2022/06/20 02:07:41;;;;;;;11.68;6.55;;;;;;;11.83;92.42;97719.44;10499893;28;20067;-56
2022/06/20 02:12:40;;;;;;;10.23;5.93;;;;;;;11.83;92.05;97717.72;10500824;28;20067;-57
2022/06/20 02:17:42;;;;;;;9.13;6.35;;;;;;;11.67;91.35;97674.50;10500780;28;20193;-57
2022/06/20 02:22:42;;;;;;;9.43;6.45;;;;;;;11.90;91.19;97697.75;10500469;28;20071;-57
2022/06/20 02:27:48;;;;;;;8.65;5.90;;;;;;;11.87;91.04;97690.78;10500623;28;20491;-56
2022/06/20 02:32:55;;;;;;;10.80;6.40;;;;;;;11.87;91.23;97690.78;10498005;28;20676;-57
2022/06/20 02:37:54;;;;;;;10.82;7.22;;;;;;;11.85;91.94;97683.88;10495098;28;20067;-57
2022/06/20 02:43:09;;;;;;;10.43;7.57;;;;;;;11.78;92.57;97687.41;10455565;28;20502;-57
2022/06/20 02:48:10;;;;;;;10.90;6.40;;;;;;;11.52;93.25;97685.84;10455760;28;20070;-57
2022/06/20 02:53:49;;;;;;;8.57;6.28;;;;;;;11.40;93.32;97684.16;10456059;28;20074;-57
2022/06/20 02:58:52;;;;;;;9.10;6.07;;;;;;;11.38;92.94;97693.69;10455540;28;20082;-57
2022/06/20 03:03:55;;;;;;;10.82;6.20;;;;;;;11.36;92.88;97690.28;10497561;28;20486;-57
2022/06/20 03:08:56;;;;;;;9.38;5.88;;;;;;;11.30;93.30;97686.84;10497528;28;20517;-57
2022/06/20 03:13:58;;;;;;;8.75;6.63;;;;;;;11.30;93.29;97692.03;10497098;28;20098;-57
2022/06/20 03:18:58;;;;;;;11.98;6.80;;;;;;;11.35;93.08;97691.13;10496911;28;20066;-57
2022/06/20 03:23:57;;;;;;;9.60;6.70;;;;;;;11.46;92.75;97678.09;10497961;28;20063;-57
2022/06/20 03:28:58;;;;;;;11.65;7.05;;;;;;;11.60;92.48;97691.00;10439136;28;1139405;-57
2022/06/20 03:33:57;;;;;;;9.65;6.85;;;;;;;11.68;92.49;97684.00;10491385;28;20055;-57
2022/06/20 03:38:57;;;;;;;15.27;7.03;;;;;;;11.76;92.76;97682.25;10446172;28;20067;-57
2022/06/20 03:44:20;;;;;;;10.60;5.97;;;;;;;11.76;92.81;97695.25;10415000;28;20060;-57
2022/06/20 03:49:30;;;;;;;7.90;6.18;;;;;;;11.64;93.12;97698.78;10417345;28;20503;-57
2022/06/20 03:55:25;;;;;;;11.88;5.97;;;;;;;11.74;92.72;97689.19;10418551;28;20051;-57
2022/06/20 04:00:42;;;;;;;9.35;6.38;;;;;;;11.84;93.00;97697.78;10434069;28;20086;-57
2022/06/20 04:05:50;;;;;;;10.52;6.32;;;;;;;11.96;92.61;97689.88;10501464;28;20051;-56
2022/06/20 04:10:59;;;;;;;12.88;6.63;;;;;;;12.13;91.97;97687.13;10464905;28;20607;-57
2022/06/20 04:16:21;;;;;;;9.23;6.90;;;;;;;12.28;91.43;97684.44;10459358;28;20059;-57
2022/06/20 04:21:27;;;;;;;11.25;7.57;;;;;;;12.33;92.13;97665.34;10459075;28;20048;-57
2022/06/20 04:26:36;;;;;;;11.93;7.32;;;;;;;12.43;91.35;97674.78;10458030;28;20064;-57
2022/06/20 04:31:41;;;;;;;12.63;7.90;;;;;;;12.55;91.35;97679.84;10474519;28;20063;-57
2022/06/20 04:37:13;;;;;;;11.93;7.00;;;;;;;12.67;90.78;97681.47;10500989;28;20059;-57
2022/06/20 04:42:27;;;;;;;13.02;7.72;;;;;;;12.89;90.37;97687.31;10461233;28;20067;-57
2022/06/20 04:47:47;;;;;;;11.40;7.47;;;;;;;13.17;90.09;97679.19;10468228;28;20047;-57
2022/06/20 04:52:50;;;;;;;12.38;7.53;;;;;;;13.39;89.47;97666.72;10478488;28;20054;-57
2022/06/20 04:57:51;;;;;;;15.40;7.82;;;;;;;13.78;89.28;97670.53;10445859;28;20060;-57
2022/06/20 05:02:53;;;;;;;11.75;7.40;;;;;;;14.10;88.24;97676.97;10457058;28;20047;-57
2022/06/20 05:07:53;;;;;;;8.73;6.90;;;;;;;14.39;86.71;97663.44;10495260;28;20481;-57
2022/06/20 05:13:00;;;;;;;13.02;7.05;;;;;;;14.70;85.99;97657.66;10469036;28;20040;-57
2022/06/20 05:18:16;;;;;;;13.07;9.32;;;;;;;14.87;83.57;97665.19;10458552;28;20062;-57
2022/06/20 05:23:38;;;;;;;13.48;8.75;;;;;;;15.00;83.05;97661.44;10428177;28;20064;-57
2022/06/20 05:28:39;;;;;;;13.68;8.57;;;;;;;15.08;84.32;97658.66;10461241;28;20690;-57
2022/06/20 05:33:57;;;;;;;9.98;7.68;;;;;;;15.06;83.52;97653.50;10490285;28;20533;-57
2022/06/20 05:39:31;;;;;;;13.63;8.60;;;;;;;15.40;83.25;97658.00;10459513;28;20456;-57
2022/06/20 05:44:31;;;;;;;11.23;8.20;;;;;;;15.65;81.83;97656.56;10478609;28;20071;-57
2022/06/20 05:49:39;;;;;;;12.80;8.43;;;;;;;15.84;81.43;97656.16;10483522;28;20466;-57
2022/06/20 05:54:55;;;;;;;10.50;7.90;;;;;;;16.11;80.64;97645.91;10497209;28;20070;-57
2022/06/20 06:00:03;;;;;;;10.55;7.38;;;;;;;16.40;77.99;97646.03;10493442;28;20439;-57
2022/06/20 06:05:21;;;;;;;9.17;7.13;;;;;;;16.73;77.67;97649.50;10502882;28;20062;-57
2022/06/20 06:10:38;;;;;;;9.00;7.35;;;;;;;17.08;77.44;97646.84;10493510;28;20056;-57
2022/06/20 06:16:46;;;;;;;11.73;7.82;;;;;;;17.39;75.13;97638.06;10477781;28;20654;-57
2022/06/20 06:21:03;;;;;;;8.77;6.80;;;;;;;17.56;72.81;97620.03;10465711;28;20525;-57
2022/06/20 06:26:02;;;;;;;10.80;6.60;;;;;;;17.73;71.83;97623.00;10474193;28;20244;-57
2022/06/20 06:31:08;;;;;;;9.05;6.72;;;;;;;17.84;71.07;97619.19;10459993;28;20643;-57
2022/06/20 06:36:16;;;;;;;8.63;5.45;;;;;;;17.96;70.76;97614.41;10465862;28;20066;-57
2022/06/20 06:41:25;;;;;;;6.07;4.95;;;;;;;18.08;68.20;97605.25;10469969;28;20059;-57
2022/06/20 06:46:31;;;;;;;6.68;4.13;;;;;;;18.23;66.31;97605.66;10459429;28;20063;-57
2022/06/20 06:51:32;;;;;;;6.60;4.60;;;;;;;18.45;65.63;97596.09;10457727;28;20062;-57
2022/06/20 06:56:38;;;;;;;6.25;4.55;;;;;;;18.76;66.36;97589.78;10458215;28;20056;-57
2022/06/20 07:01:43;;;;;;;4.75;4.07;;;;;;;18.86;63.30;97572.75;10487586;28;20063;-58
2022/06/20 07:06:52;;;;;;;8.77;3.88;;;;;;;19.13;62.33;97568.22;10469343;28;20063;-57
2022/06/20 07:12:03;;;;;;;4.05;3.45;;;;;;;19.36;60.17;97564.69;10456968;28;20502;-58
2022/06/20 07:17:11;;;;;;;4.15;3.55;;;;;;;19.67;57.73;97563.50;10493165;28;20553;-57
2022/06/20 07:22:14;;;;;;;6.45;3.50;;;;;;;19.96;56.93;97550.94;10457029;28;20455;-57
2022/06/20 07:27:30;;;;;;;5.03;3.22;;;;;;;20.11;54.47;97546.78;10483515;28;20047;-57
2022/06/20 07:32:39;;;;;;;5.45;3.35;;;;;;;20.46;54.99;97551.38;10474092;28;20842;-58
2022/06/20 07:37:44;;;;;;;3.25;2.88;;;;;;;20.58;53.41;97536.81;10455203;28;20488;-57
2022/06/20 07:43:01;;;;;;;4.82;3.22;;;;;;;20.88;52.43;97550.38;10456047;28;20056;-57
2022/06/20 07:48:05;;;;;;;3.13;2.80;;;;;;;21.17;51.95;97540.25;10467130;28;20062;-58
2022/06/20 07:53:10;;;;;;;3.10;2.80;;;;;;;21.30;50.96;97536.16;10456818;28;20176;-57
2022/06/20 07:58:35;;;;;;;4.05;3.28;;;;;;;21.53;52.46;97537.69;10455111;28;20064;-57
2022/06/20 08:03:47;;;;;;;5.32;2.90;;;;;;;21.79;52.37;97534.69;10497088;28;20075;-58
2022/06/20 08:08:53;;;;;;;5.95;3.33;;;;;;;22.09;52.25;97529.69;10469351;28;20059;-58
2022/06/20 08:13:55;;;;;;;3.88;2.85;;;;;;;22.06;49.55;97516.59;10468791;28;20066;-58
2022/06/20 08:18:54;;;;;;;3.83;2.80;;;;;;;22.37;50.30;97514.09;10484929;28;20059;-58
2022/06/20 08:24:01;;;;;;;3.03;2.30;;;;;;;22.53;44.83;97521.19;10478945;28;20071;-57
2022/06/20 08:29:07;;;;;;;2.17;2.00;;;;;;;22.75;44.04;97513.88;10468583;28;20079;-57
2022/06/20 08:34:33;;;;;;;3.75;2.35;;;;;;;23.01;44.89;97517.72;10455240;28;20502;-58
2022/06/20 08:39:35;;;;;;;6.47;2.50;;;;;;;23.14;42.78;97511.75;10454073;28;20066;-58
2022/06/20 08:44:40;;;;;;;2.47;2.20;;;;;;;23.47;43.10;97514.34;10439381;28;20071;-58
2022/06/20 08:49:45;;;;;;;2.92;2.35;;;;;;;23.52;40.61;97504.34;10456401;28;20499;-58
2022/06/20 08:55:25;;;;;;;3.17;2.58;;;;;;;23.73;41.40;97507.53;10435196;28;20071;-57
2022/06/20 09:00:32;;;;;;;5.55;2.22;;;;;;;23.92;40.13;97501.16;10396291;28;20127;-58
2022/06/20 09:05:34;;;;;;;2.88;2.30;;;;;;;23.91;40.31;97502.09;10431692;28;20071;-58
2022/06/20 09:11:00;;;;;;;4.03;2.25;;;;;;;24.11;38.93;97501.78;10464144;28;20461;-58
2022/06/20 09:16:33;;;;;;;3.60;2.60;;;;;;;24.41;40.81;97501.75;10462013;28;20056;-58
2022/06/20 09:21:57;;;;;;;5.15;2.75;;;;;;;24.46;38.04;97485.56;10427167;28;20075;-58
2022/06/20 09:27:25;;;;;;;3.65;2.47;;;;;;;24.52;37.55;97487.84;10461284;28;20846;-58
2022/06/20 09:32:55;;;;;;;4.95;2.78;;;;;;;24.80;37.49;97468.41;10420172;28;20502;-58
2022/06/20 09:38:09;;;;;;;4.22;2.40;;;;;;;24.94;37.89;97469.31;10422087;28;20067;-58
2022/06/20 09:43:23;;;;;;;2.67;2.20;;;;;;;25.06;36.76;97455.28;10459930;28;20062;-58
2022/06/20 09:48:26;;;;;;;2.53;2.33;;;;;;;25.08;34.55;97461.31;10459255;28;20058;-58
2022/06/20 09:53:34;;;;;;;2.70;2.50;;;;;;;25.29;36.01;97464.41;10437948;28;20147;-58
2022/06/20 09:58:53;;;;;;;2.40;2.20;;;;;;;25.53;36.07;97457.47;10460826;28;20206;-58
2022/06/20 10:04:09;;;;;;;2.42;2.22;;;;;;;25.61;35.88;97459.66;10462682;28;20056;-58
2022/06/20 10:09:14;;;;;;;2.55;2.15;;;;;;;25.38;34.47;97455.81;10458772;28;20060;-58
2022/06/20 10:14:20;;;;;;;2.28;2.08;;;;;;;25.19;35.57;97453.53;10450539;28;20055;-58
2022/06/20 10:19:36;;;;;;;3.40;2.40;;;;;;;24.96;37.59;97446.19;10451502;28;20107;-58
2022/06/20 10:24:38;;;;;;;4.57;2.45;;;;;;;24.89;35.97;97454.56;10459095;28;20055;-58
2022/06/20 10:29:55;;;;;;;3.38;2.10;;;;;;;25.18;36.28;97441.22;10454157;28;20067;-58
2022/06/20 10:35:09;;;;;;;3.15;2.47;;;;;;;25.59;34.96;97440.28;10458126;28;20494;-58
2022/06/20 10:40:13;;;;;;;3.85;2.33;;;;;;;25.70;33.78;97434.28;10443242;28;20075;-58
2022/06/20 10:45:32;;;;;;;3.10;2.30;;;;;;;25.97;34.20;97428.00;10457397;28;20062;-58
2022/06/20 10:50:39;;;;;;;3.03;2.10;;;;;;;25.97;33.24;97418.22;10456402;28;20066;-58
2022/06/20 10:55:53;;;;;;;2.88;2.20;;;;;;;26.21;33.43;97418.38;10457437;28;20051;-58
2022/06/20 11:01:10;;;;;;;3.33;2.17;;;;;;;26.12;32.85;97417.19;10466677;28;20217;-58
2022/06/20 11:06:20;;;;;;;2.40;2.20;;;;;;;26.26;33.09;97405.59;10444985;28;20055;-58
2022/06/20 11:11:22;;;;;;;3.25;2.40;;;;;;;26.53;33.40;97405.47;10436491;28;20115;-58
2022/06/20 11:16:30;;;;;;;2.42;2.22;;;;;;;26.71;32.38;97397.97;10431178;28;20114;-58
2022/06/20 11:21:56;;;;;;;2.70;2.50;;;;;;;26.82;33.56;97383.03;10456314;28;20056;-58
2022/06/20 11:27:04;;;;;;;2.58;2.25;;;;;;;27.11;33.52;97383.56;10416153;28;20055;-58
2022/06/20 11:32:10;;;;;;;2.27;2.10;;;;;;;27.41;35.31;97381.28;10430733;28;20067;-58
2022/06/20 11:37:24;;;;;;;2.45;2.08;;;;;;;27.19;30.94;97389.19;10415067;28;20409;-58
2022/06/20 11:43:07;;;;;;;2.40;2.20;;;;;;;26.76;31.58;97379.00;10416163;28;20066;-58
2022/06/20 11:48:24;;;;;;;4.78;2.40;;;;;;;26.89;32.69;97373.66;10468998;28;20161;-58
2022/06/20 11:53:59;;;;;;;2.42;2.22;;;;;;;27.11;32.01;97368.44;10462888;28;20090;-58
2022/06/20 11:59:04;;;;;;;2.20;2.00;;;;;;;27.11;30.37;97354.28;10431919;28;20070;-58
2022/06/20 12:04:21;;;;;;;2.42;2.22;;;;;;;27.05;30.47;97354.72;10468103;28;20059;-58
2022/06/20 12:09:38;;;;;;;2.85;2.35;;;;;;;27.02;30.56;97341.66;10471242;28;20052;-58
2022/06/20 12:14:44;;;;;;;4.85;2.80;;;;;;;26.95;31.40;97334.09;10418175;28;20525;-58
2022/06/20 12:25:47;;;;;;;2.63;2.42;;;;;;;27.66;31.56;97326.16;10440406;28;20059;-58
2022/06/20 12:30:53;;;;;;;4.03;2.47;;;;;;;27.72;30.08;97322.97;10415661;28;20072;-58
2022/06/20 12:36:01;;;;;;;2.92;2.33;;;;;;;27.81;29.69;97316.94;10424347;28;20067;-58
2022/06/20 12:41:06;;;;;;;3.00;2.50;;;;;;;27.44;29.62;97315.38;10454423;28;20063;-58
2022/06/20 12:46:26;;;;;;;6.32;2.38;;;;;;;27.40;29.53;97309.44;10417525;28;20087;-58
2022/06/20 12:51:34;;;;;;;3.92;2.40;;;;;;;27.81;30.27;97306.28;10422297;28;20063;-58
2022/06/20 12:57:19;;;;;;;2.60;2.40;;;;;;;27.94;29.04;97297.28;10462847;28;20446;-58
2022/06/20 13:03:12;;;;;;;4.03;2.47;;;;;;;27.92;29.41;97293.94;10474816;28;20070;-58
2022/06/20 13:08:26;;;;;;;2.30;2.10;;;;;;;27.88;30.45;97287.13;10404264;28;20822;-58
2022/06/20 13:13:48;;;;;;;2.60;2.40;;;;;;;28.09;29.21;97280.13;10491580;28;20066;-58
2022/06/20 13:19:02;;;;;;;2.75;2.50;;;;;;;28.00;29.19;97281.66;10421544;28;20067;-58
2022/06/20 13:24:20;;;;;;;2.53;2.30;;;;;;;28.31;29.51;97270.38;10421554;28;20513;-58
2022/06/20 13:29:45;;;;;;;2.90;2.60;;;;;;;28.67;29.99;97271.91;10425141;28;20519;-58
2022/06/20 13:35:17;;;;;;;3.45;2.60;;;;;;;28.88;30.76;97271.97;10421006;28;20436;-58
2022/06/20 13:40:26;;;;;;;2.40;2.20;;;;;;;28.94;28.05;97273.25;10435596;28;20060;-58
2022/06/20 13:45:46;;;;;;;2.80;2.47;;;;;;;28.60;28.59;97235.97;10420499;28;20067;-58
2022/06/20 13:51:12;;;;;;;2.70;2.42;;;;;;;28.97;29.19;97255.16;10441640;28;20060;-58
2022/06/20 13:56:30;;;;;;;3.25;2.70;;;;;;;28.99;28.28;97245.19;10452775;28;20529;-58
2022/06/20 14:01:39;;;;;;;3.20;2.33;;;;;;;29.06;28.52;97243.69;10474281;28;20062;-58
2022/06/20 14:07:03;;;;;;;3.08;2.70;;;;;;;28.71;29.45;97243.13;10444812;28;20071;-58
2022/06/20 14:12:20;;;;;;;5.45;2.47;;;;;;;28.42;30.03;97235.66;10431042;28;20071;-58
2022/06/20 14:17:22;;;;;;;2.97;2.65;;;;;;;28.29;30.41;97230.50;10431150;28;20071;-58
2022/06/20 14:22:38;;;;;;;2.28;2.08;;;;;;;28.65;30.12;97221.28;10423204;28;20831;-58
2022/06/20 14:27:37;;;;;;;2.55;2.33;;;;;;;28.04;30.50;97204.94;10430671;28;20067;-58
2022/06/20 14:32:52;;;;;;;2.00;1.90;;;;;;;28.02;30.38;97237.03;10459752;28;20051;-58
2022/06/20 14:37:59;;;;;;;2.85;2.65;;;;;;;28.01;30.34;97229.19;10457816;28;20071;-58
2022/06/20 14:43:10;;;;;;;2.90;2.40;;;;;;;28.05;30.51;97222.63;10459736;28;20056;-58
2022/06/20 14:48:41;;;;;;;2.47;2.28;;;;;;;27.98;30.97;97218.75;10427211;28;20438;-58
2022/06/20 14:53:48;;;;;;;2.50;2.30;;;;;;;27.99;31.65;97220.47;10439618;28;20064;-58
2022/06/20 14:58:47;;;;;;;2.42;2.17;;;;;;;27.76;30.83;97219.63;10456505;28;20440;-58
2022/06/20 15:04:24;;;;;;;2.67;2.40;;;;;;;27.83;31.44;97210.16;10457160;28;20064;-58
2022/06/20 15:09:30;;;;;;;2.58;2.38;;;;;;;27.92;31.01;97212.09;10429796;28;20078;-58
2022/06/20 15:14:40;;;;;;;2.60;2.40;;;;;;;27.83;30.71;97213.66;10476797;28;20075;-58
2022/06/20 15:19:47;;;;;;;3.00;2.17;;;;;;;27.77;31.13;97213.31;10427868;28;20139;-58
2022/06/20 15:25:15;;;;;;;3.20;2.60;;;;;;;27.50;31.89;97222.53;10419448;28;20064;-58
2022/06/20 15:30:36;;;;;;;3.23;2.70;;;;;;;27.40;31.91;97219.72;10414239;28;20070;-58
2022/06/20 15:40:44;;;;;;;4.20;2.78;;;;;;;27.35;31.97;97235.22;10457820;28;20064;-58
2022/06/20 15:45:52;;;;;;;3.17;2.67;;;;;;;27.20;31.99;97241.72;10457148;28;20060;-58
2022/06/20 15:51:02;;;;;;;3.00;2.70;;;;;;;26.96;33.53;97247.94;10455674;28;20056;-58
2022/06/20 15:56:21;;;;;;;2.50;2.30;;;;;;;26.90;33.62;97236.91;10456996;28;20070;-58
2022/06/20 16:01:40;;;;;;;;;;;;;;;26.82;33.69;97244.59;10457876;28;20063;-58
2022/06/20 16:06:50;;;;;;;2.80;2.45;;;;;;;26.88;32.55;97237.00;10407031;28;19940;-58
2022/06/20 16:11:52;;;;;;;3.42;2.75;;;;;;;26.91;32.68;97233.25;10483967;28;20106;-58
2022/06/20 16:16:52;;;;;;;3.92;2.80;;;;;;;27.06;32.91;97228.59;10416212;28;20134;-58
2022/06/20 16:21:56;;;;;;;4.63;2.70;;;;;;;27.10;32.00;97219.41;10447654;28;20082;-58
2022/06/20 16:26:55;;;;;;;3.28;2.80;;;;;;;27.27;32.99;97226.94;10431594;28;20487;-58
2022/06/20 16:31:59;;;;;;;3.00;2.70;;;;;;;27.25;33.96;97231.53;10426048;28;20067;-58
2022/06/20 16:37:21;;;;;;;4.75;2.97;;;;;;;26.96;34.76;97239.97;10453532;28;20059;-58
2022/06/20 16:42:54;;;;;;;3.88;2.78;;;;;;;26.79;35.44;97240.34;10438285;28;20071;-58
2022/06/20 16:48:17;;;;;;;4.82;2.80;;;;;;;26.87;34.54;97221.16;10446208;28;20071;-58
2022/06/20 16:53:32;;;;;;;3.67;2.70;;;;;;;26.94;34.62;97220.56;10455314;28;20416;-57
2022/06/20 16:58:45;;;;;;;3.05;2.75;;;;;;;26.96;34.86;97220.47;10456148;28;20481;-58
2022/06/20 17:03:53;;;;;;;4.10;2.50;;;;;;;26.86;34.48;97212.34;10435201;28;20064;-58
2022/06/20 17:09:20;;;;;;;4.72;3.38;;;;;;;26.75;34.60;97196.28;10474272;28;20668;-58
2022/06/20 17:14:33;;;;;;;6.13;3.53;;;;;;;26.76;34.54;97205.97;10433707;28;20475;-58
2022/06/20 17:19:58;;;;;;;4.38;3.08;;;;;;;26.77;36.49;97199.69;10451823;28;20071;-58
2022/06/20 17:25:09;;;;;;;7.38;3.50;;;;;;;26.61;38.70;97204.47;10413928;28;20063;-58
2022/06/20 17:30:14;;;;;;;5.90;3.58;;;;;;;26.14;40.29;97213.16;10413259;28;20102;-58
2022/06/20 17:35:33;;;;;;;5.35;3.80;;;;;;;25.77;41.52;97206.97;10452664;28;20064;-58
2022/06/20 17:40:59;;;;;;;8.50;3.75;;;;;;;25.39;43.06;97209.66;10462388;28;20051;-58
2022/06/20 17:46:15;;;;;;;4.07;3.40;;;;;;;25.05;43.78;97201.34;10460996;28;20479;-58
2022/06/20 17:51:28;;;;;;;5.13;3.13;;;;;;;24.70;43.45;97196.59;10461872;28;20523;-58
2022/06/20 17:57:04;;;;;;;53.25;34.28;;;;;;;24.28;43.51;97190.53;10460583;28;20055;-58
2022/06/20 18:02:18;;;;;;;20.27;15.57;;;;;;;23.89;44.39;97199.22;10495111;28;20534;-58
2022/06/20 18:07:30;;;;;;;7.03;5.50;;;;;;;23.56;45.27;97197.75;10496366;28;20059;-58
2022/06/20 18:12:43;;;;;;;5.50;4.07;;;;;;;23.14;46.33;97202.94;10461200;28;20063;-58
2022/06/20 18:18:11;;;;;;;4.60;3.70;;;;;;;22.74;47.34;97204.44;10442304;28;20079;-58
2022/06/20 18:23:34;;;;;;;12.13;8.48;;;;;;;22.42;48.06;97198.38;10424644;28;20082;-58
2022/06/20 18:28:38;;;;;;;7.25;4.25;;;;;;;22.08;49.41;97197.66;10418132;28;20079;-58
2022/06/20 18:33:45;;;;;;;4.82;4.10;;;;;;;21.82;50.46;97196.44;10457560;28;20071;-58
2022/06/20 18:39:14;;;;;;;9.25;5.47;;;;;;;21.48;53.06;97207.06;10460641;28;20480;-58
2022/06/20 18:44:13;;;;;;;6.07;5.43;;;;;;;21.01;58.24;97228.84;10469028;28;20118;-58
2022/06/20 18:49:30;;;;;;;8.02;5.18;;;;;;;20.67;59.99;97230.56;10482745;28;20059;-58
2022/06/20 18:55:10;;;;;;;8.00;5.93;;;;;;;20.48;61.14;97240.31;10423710;28;20089;-58
2022/06/20 19:00:18;;;;;;;;;;;;;;;20.28;62.21;97244.75;10454892;28;20120;-58
2022/06/20 19:05:23;;;;;;;7.32;5.65;;;;;;;20.13;63.01;97252.53;10500149;28;19978;-58
2022/06/20 19:10:35;;;;;;;8.07;6.00;;;;;;;20.00;63.35;97249.59;10497724;28;20055;-58
2022/06/20 19:15:46;;;;;;;6.63;5.22;;;;;;;19.86;63.57;97247.59;10461591;28;20056;-58
2022/06/20 19:20:59;;;;;;;8.77;5.70;;;;;;;19.76;63.70;97244.53;10477244;28;20059;-58
2022/06/20 19:26:09;;;;;;;8.40;5.80;;;;;;;19.62;63.99;97244.34;10457472;28;20064;-58
2022/06/20 19:31:21;;;;;;;7.28;5.82;;;;;;;19.43;64.29;97234.59;10457435;28;20514;-58
2022/06/20 19:36:26;;;;;;;7.00;4.45;;;;;;;19.26;63.46;97237.13;10457338;28;20082;-58
2022/06/20 19:41:29;;;;;;;6.13;4.43;;;;;;;19.27;62.13;97252.00;10418671;28;20484;-57
2022/06/20 19:46:34;;;;;;;6.15;4.78;;;;;;;19.17;62.75;97256.81;10415626;28;20067;-58
2022/06/20 19:51:36;;;;;;;9.13;5.90;;;;;;;18.96;66.96;97261.22;10437674;28;20051;-57
2022/06/20 19:57:11;;;;;;;6.20;4.30;;;;;;;18.70;69.35;97264.09;10455688;28;20060;-58
2022/06/20 20:02:16;;;;;;;8.07;4.78;;;;;;;18.56;68.88;97260.22;10442473;28;20067;-57
2022/06/20 20:07:30;;;;;;;6.22;4.93;;;;;;;18.42;69.37;97253.81;10425927;28;20058;-57
2022/06/20 20:12:30;;;;;;;6.47;4.35;;;;;;;18.32;69.24;97246.31;10473167;28;20048;-57
2022/06/20 20:17:32;;;;;;;9.13;5.05;;;;;;;18.28;69.53;97241.25;10456159;28;20059;-57
2022/06/20 20:22:41;;;;;;;8.07;4.90;;;;;;;18.18;69.86;97231.09;10438067;28;20094;-57
2022/06/20 20:27:55;;;;;;;7.63;5.67;;;;;;;18.10;70.20;97221.81;10440753;28;20063;-57
2022/06/20 20:33:19;;;;;;;7.88;5.95;;;;;;;17.95;70.69;97228.53;10451891;28;20075;-58
2022/06/20 20:38:45;;;;;;;10.05;6.80;;;;;;;17.75;73.61;97243.25;10415988;28;20681;-57
2022/06/20 20:44:32;;;;;;;7.63;5.05;;;;;;;17.53;74.46;97231.84;10414292;28;20083;-57
2022/06/20 20:49:39;;;;;;;8.40;5.65;;;;;;;17.21;75.26;97226.00;10349869;28;20078;-57
2022/06/20 20:54:39;;;;;;;9.23;5.88;;;;;;;17.18;75.04;97230.53;10455742;28;20063;-57
2022/06/20 20:59:47;;;;;;;8.60;6.13;;;;;;;17.11;75.75;97230.72;10467703;28;20522;-57
2022/06/20 21:05:10;;;;;;;10.07;6.25;;;;;;;17.01;76.74;97245.09;10497408;28;20074;-57
2022/06/20 21:10:16;;;;;;;10.57;7.25;;;;;;;16.95;76.42;97224.31;10447192;28;20060;-57
2022/06/20 21:15:24;;;;;;;8.30;6.18;;;;;;;16.91;76.39;97223.56;10421342;28;20469;-57
2022/06/20 21:20:24;;;;;;;10.00;6.30;;;;;;;16.76;76.87;97228.44;10421257;28;20074;-57
2022/06/20 21:25:26;;;;;;;10.27;5.85;;;;;;;16.69;77.67;97243.53;10458525;28;20060;-57
2022/06/20 21:30:28;;;;;;;9.07;6.88;;;;;;;16.58;78.42;97253.50;10463117;28;20083;-57
2022/06/20 21:35:28;;;;;;;8.27;6.65;;;;;;;16.41;80.08;97249.66;10461786;28;20066;-57
2022/06/20 21:40:31;;;;;;;8.13;6.32;;;;;;;16.35;79.49;97244.66;10462920;28;20064;-57
2022/06/20 21:45:38;;;;;;;8.75;5.97;;;;;;;16.42;79.20;97254.03;10460869;28;20055;-57
2022/06/20 21:51:11;;;;;;;10.70;6.15;;;;;;;16.39;78.92;97251.47;10463714;28;20479;-57
2022/06/20 21:56:28;;;;;;;8.60;6.68;;;;;;;16.38;78.65;97243.69;10464461;28;20070;-57
2022/06/20 22:06:45;;;;;;;12.48;5.93;;;;;;;16.27;79.30;97249.25;10505459;28;20070;-57
2022/06/20 22:11:44;;;;;;;;;;;;;;;16.22;79.20;97248.56;10450328;28;20012;-57
2022/06/20 22:16:56;;;;;;;10.43;7.73;;;;;;;16.13;78.96;97238.38;10456389;28;19916;-57
2022/06/20 22:22:00;;;;;;;13.30;7.80;;;;;;;16.09;78.85;97241.09;10458376;28;20475;-57
2022/06/20 22:27:46;;;;;;;11.15;7.50;;;;;;;16.07;78.87;97242.91;10458519;28;20081;-57
2022/06/20 22:32:50;;;;;;;9.70;5.70;;;;;;;15.90;78.53;97226.84;10453712;28;20082;-57
2022/06/20 22:37:51;;;;;;;9.27;6.82;;;;;;;15.82;78.89;97234.94;10433040;28;20059;-57
2022/06/20 22:42:54;;;;;;;8.75;6.65;;;;;;;15.73;79.21;97218.63;10422969;28;20064;-57
2022/06/20 22:47:55;;;;;;;8.85;6.28;;;;;;;15.73;80.15;97229.09;10441497;28;20059;-57
2022/06/20 22:52:58;;;;;;;9.50;6.18;;;;;;;15.64;81.57;97238.06;10442308;28;20074;-57
2022/06/20 22:58:00;;;;;;;8.77;5.65;;;;;;;15.63;81.72;97225.91;10459080;28;20475;-57
2022/06/20 23:03:05;;;;;;;9.60;6.50;;;;;;;15.45;82.78;97232.53;10417580;28;20066;-57
2022/06/20 23:08:04;;;;;;;8.70;6.18;;;;;;;15.19;82.47;97197.53;10417944;28;20059;-57
2022/06/20 23:13:03;;;;;;;;;;;;;;;15.38;82.20;97238.84;10453358;28;20024;-57
2022/06/20 23:23:20;;;;;;;9.68;6.55;;;;;;;15.29;82.66;97239.94;10456723;28;20064;-57
2022/06/20 23:28:18;;;;;;;;;;;;;;;15.28;82.85;97242.63;10458920;28;20115;-58
2022/06/20 23:33:17;;;;;;;9.73;6.65;;;;;;;15.19;83.07;97231.50;10455959;28;19944;-57
2022/06/20 23:38:28;;;;;;;;;;;;;;;15.18;83.25;97239.41;10458163;28;20498;-57
2022/06/20 23:43:31;;;;;;;14.15;7.07;;;;;;;15.12;83.55;97235.19;10457381;28;19982;-57
2022/06/20 23:48:33;;;;;;;9.77;6.85;;;;;;;15.12;83.56;97232.56;10457780;28;20071;-57
2022/06/20 23:53:32;;;;;;;10.20;6.28;;;;;;;15.02;84.37;97231.97;10441029;28;20052;-57
2022/06/20 23:58:35;;;;;;;;;;;;;;;14.98;84.98;97239.94;10451718;28;20019;-57
